sensor_id;sensor_type;location;lat;lon;timestamp;temperature;humidity
63371;DHT22;49504;48.336;14.472;2022-09-09T00:06:34;26.90;48.30
63371;DHT22;49504;48.336;14.472;2022-09-09T00:13:11;26.80;48.30
63371;DHT22;49504;48.336;14.472;2022-09-09T00:21:23;26.80;48.40
63371;DHT22;49504;48.336;14.472;2022-09-09T00:26:35;26.80;48.70
63371;DHT22;49504;48.336;14.472;2022-09-09T00:31:39;26.80;48.50
63371;DHT22;49504;48.336;14.472;2022-09-09T00:36:42;26.80;48.60
63371;DHT22;49504;48.336;14.472;2022-09-09T00:41:51;26.80;48.70
63371;DHT22;49504;48.336;14.472;2022-09-09T00:47:09;26.80;48.70
63371;DHT22;49504;48.336;14.472;2022-09-09T00:52:26;26.80;48.80
63371;DHT22;49504;48.336;14.472;2022-09-09T00:57:33;26.80;48.70
63371;DHT22;49504;48.336;14.472;2022-09-09T01:06:13;26.80;48.20
63371;DHT22;49504;48.336;14.472;2022-09-09T01:13:22;26.80;48.20
63371;DHT22;49504;48.336;14.472;2022-09-09T01:18:27;26.80;48.60
63371;DHT22;49504;48.336;14.472;2022-09-09T01:23:44;26.80;48.50
63371;DHT22;49504;48.336;14.472;2022-09-09T01:29:00;26.80;48.60
63371;DHT22;49504;48.336;14.472;2022-09-09T01:34:01;26.80;48.50
63371;DHT22;49504;48.336;14.472;2022-09-09T01:39:02;26.80;48.60
63371;DHT22;49504;48.336;14.472;2022-09-09T01:44:05;26.80;48.60
63371;DHT22;49504;48.336;14.472;2022-09-09T01:49:07;26.80;48.60
63371;DHT22;49504;48.336;14.472;2022-09-09T01:54:09;26.80;48.50
63371;DHT22;49504;48.336;14.472;2022-09-09T01:59:22;26.80;48.30
63371;DHT22;49504;48.336;14.472;2022-09-09T02:04:37;26.80;48.40
63371;DHT22;49504;48.336;14.472;2022-09-09T02:09:41;26.80;48.30
63371;DHT22;49504;48.336;14.472;2022-09-09T02:14:50;26.80;48.20
63371;DHT22;49504;48.336;14.472;2022-09-09T02:19:56;26.80;48.30
63371;DHT22;49504;48.336;14.472;2022-09-09T02:25:00;26.80;48.30
63371;DHT22;49504;48.336;14.472;2022-09-09T02:30:04;26.80;48.30
63371;DHT22;49504;48.336;14.472;2022-09-09T02:35:08;26.80;48.50
63371;DHT22;49504;48.336;14.472;2022-09-09T02:40:12;26.80;48.60
63371;DHT22;49504;48.336;14.472;2022-09-09T02:45:19;26.80;48.50
63371;DHT22;49504;48.336;14.472;2022-09-09T02:53:49;26.70;47.90
63371;DHT22;49504;48.336;14.472;2022-09-09T02:58:55;26.70;48.30
63371;DHT22;49504;48.336;14.472;2022-09-09T03:03:56;26.70;48.20
63371;DHT22;49504;48.336;14.472;2022-09-09T03:08:59;26.70;48.10
63371;DHT22;49504;48.336;14.472;2022-09-09T03:14:00;26.70;48.30
63371;DHT22;49504;48.336;14.472;2022-09-09T03:19:00;26.70;48.30
63371;DHT22;49504;48.336;14.472;2022-09-09T03:24:03;26.70;48.30
63371;DHT22;49504;48.336;14.472;2022-09-09T03:29:04;26.70;48.30
63371;DHT22;49504;48.336;14.472;2022-09-09T03:34:05;26.70;48.40
63371;DHT22;49504;48.336;14.472;2022-09-09T03:39:08;26.70;48.20
63371;DHT22;49504;48.336;14.472;2022-09-09T03:46:33;26.70;48.10
63371;DHT22;49504;48.336;14.472;2022-09-09T03:55:09;26.70;47.90
63371;DHT22;49504;48.336;14.472;2022-09-09T04:00:11;26.70;48.40
63371;DHT22;49504;48.336;14.472;2022-09-09T04:09:17;26.70;47.80
63371;DHT22;49504;48.336;14.472;2022-09-09T04:14:19;26.70;48.00
63371;DHT22;49504;48.336;14.472;2022-09-09T04:19:20;26.70;47.90
63371;DHT22;49504;48.336;14.472;2022-09-09T04:24:22;26.70;47.80
63371;DHT22;49504;48.336;14.472;2022-09-09T04:29:23;26.70;47.80
63371;DHT22;49504;48.336;14.472;2022-09-09T04:34:24;26.70;48.40
63371;DHT22;49504;48.336;14.472;2022-09-09T04:39:27;26.70;48.40
63371;DHT22;49504;48.336;14.472;2022-09-09T04:44:28;26.70;48.40
63371;DHT22;49504;48.336;14.472;2022-09-09T04:49:30;26.80;49.00
63371;DHT22;49504;48.336;14.472;2022-09-09T04:54:33;26.80;48.90
63371;DHT22;49504;48.336;14.472;2022-09-09T05:00:23;26.70;48.10
63371;DHT22;49504;48.336;14.472;2022-09-09T05:05:25;26.70;48.60
63371;DHT22;49504;48.336;14.472;2022-09-09T05:10:26;26.70;48.40
63371;DHT22;49504;48.336;14.472;2022-09-09T05:15:28;26.70;48.70
63371;DHT22;49504;48.336;14.472;2022-09-09T05:20:29;26.70;48.90
63371;DHT22;49504;48.336;14.472;2022-09-09T05:29:13;26.70;48.30
63371;DHT22;49504;48.336;14.472;2022-09-09T05:34:14;26.70;49.00
63371;DHT22;49504;48.336;14.472;2022-09-09T05:39:15;26.70;48.90
63371;DHT22;49504;48.336;14.472;2022-09-09T05:44:17;26.70;49.00
63371;DHT22;49504;48.336;14.472;2022-09-09T05:49:19;26.60;49.10
63371;DHT22;49504;48.336;14.472;2022-09-09T05:54:20;26.70;49.10
63371;DHT22;49504;48.336;14.472;2022-09-09T05:59:22;26.60;49.00
63371;DHT22;49504;48.336;14.472;2022-09-09T06:04:23;26.60;49.10
63371;DHT22;49504;48.336;14.472;2022-09-09T06:09:24;26.60;49.40
63371;DHT22;49504;48.336;14.472;2022-09-09T06:14:27;26.60;49.10
63371;DHT22;49504;48.336;14.472;2022-09-09T06:19:27;26.60;48.90
63371;DHT22;49504;48.336;14.472;2022-09-09T06:28:38;26.60;48.10
63371;DHT22;49504;48.336;14.472;2022-09-09T06:33:40;26.60;48.40
63371;DHT22;49504;48.336;14.472;2022-09-09T06:45:19;26.60;47.90
63371;DHT22;49504;48.336;14.472;2022-09-09T06:50:20;26.60;48.20
63371;DHT22;49504;48.336;14.472;2022-09-09T06:55:23;26.60;48.20
63371;DHT22;49504;48.336;14.472;2022-09-09T07:00:26;26.50;48.20
63371;DHT22;49504;48.336;14.472;2022-09-09T07:05:27;26.50;48.30
63371;DHT22;49504;48.336;14.472;2022-09-09T07:11:38;26.50;48.00
63371;DHT22;49504;48.336;14.472;2022-09-09T07:16:40;26.50;48.50
63371;DHT22;49504;48.336;14.472;2022-09-09T07:22:56;26.50;48.00
63371;DHT22;49504;48.336;14.472;2022-09-09T07:27:57;26.60;48.70
63371;DHT22;49504;48.336;14.472;2022-09-09T07:32:58;26.50;48.90
63371;DHT22;49504;48.336;14.472;2022-09-09T07:38:02;26.50;49.30
63371;DHT22;49504;48.336;14.472;2022-09-09T07:43:03;26.50;49.30
63371;DHT22;49504;48.336;14.472;2022-09-09T07:48:06;26.60;49.50
63371;DHT22;49504;48.336;14.472;2022-09-09T07:53:10;26.60;49.50
63371;DHT22;49504;48.336;14.472;2022-09-09T07:58:11;26.60;49.40
63371;DHT22;49504;48.336;14.472;2022-09-09T08:03:12;26.60;49.40
63371;DHT22;49504;48.336;14.472;2022-09-09T08:08:15;26.60;49.50
63371;DHT22;49504;48.336;14.472;2022-09-09T08:13:16;26.60;49.40
63371;DHT22;49504;48.336;14.472;2022-09-09T08:22:48;26.60;48.70
63371;DHT22;49504;48.336;14.472;2022-09-09T08:27:49;26.60;49.30
63371;DHT22;49504;48.336;14.472;2022-09-09T08:32:50;26.60;49.40
63371;DHT22;49504;48.336;14.472;2022-09-09T08:37:55;26.60;49.50
63371;DHT22;49504;48.336;14.472;2022-09-09T08:42:57;26.60;49.40
63371;DHT22;49504;48.336;14.472;2022-09-09T08:48:21;26.60;49.50
63371;DHT22;49504;48.336;14.472;2022-09-09T08:53:39;26.50;49.60
63371;DHT22;49504;48.336;14.472;2022-09-09T08:58:47;26.60;49.70
63371;DHT22;49504;48.336;14.472;2022-09-09T09:03:53;26.60;49.50
63371;DHT22;49504;48.336;14.472;2022-09-09T09:10:38;26.50;48.70
63371;DHT22;49504;48.336;14.472;2022-09-09T09:15:48;26.60;49.50
63371;DHT22;49504;48.336;14.472;2022-09-09T09:20:57;26.60;49.20
63371;DHT22;49504;48.336;14.472;2022-09-09T09:26:09;26.60;49.40
63371;DHT22;49504;48.336;14.472;2022-09-09T09:31:11;26.60;49.50
63371;DHT22;49504;48.336;14.472;2022-09-09T09:36:14;26.60;49.50
63371;DHT22;49504;48.336;14.472;2022-09-09T09:44:35;26.50;48.80
63371;DHT22;49504;48.336;14.472;2022-09-09T09:49:36;26.60;49.50
63371;DHT22;49504;48.336;14.472;2022-09-09T09:54:39;26.60;49.30
63371;DHT22;49504;48.336;14.472;2022-09-09T09:59:44;26.60;49.10
63371;DHT22;49504;48.336;14.472;2022-09-09T10:04:45;26.60;49.20
63371;DHT22;49504;48.336;14.472;2022-09-09T10:09:50;26.60;49.20
63371;DHT22;49504;48.336;14.472;2022-09-09T10:15:02;26.60;49.20
63371;DHT22;49504;48.336;14.472;2022-09-09T10:20:23;26.60;49.20
63371;DHT22;49504;48.336;14.472;2022-09-09T10:25:41;26.60;49.30
63371;DHT22;49504;48.336;14.472;2022-09-09T10:32:47;26.60;48.90
63371;DHT22;49504;48.336;14.472;2022-09-09T10:38:03;26.60;49.50
63371;DHT22;49504;48.336;14.472;2022-09-09T10:43:17;26.60;49.50
63371;DHT22;49504;48.336;14.472;2022-09-09T10:48:40;26.60;49.50
63371;DHT22;49504;48.336;14.472;2022-09-09T10:56:09;26.60;49.00
63371;DHT22;49504;48.336;14.472;2022-09-09T11:01:20;26.60;49.60
63371;DHT22;49504;48.336;14.472;2022-09-09T11:06:28;26.60;49.70
63371;DHT22;49504;48.336;14.472;2022-09-09T11:12:54;26.60;49.10
63371;DHT22;49504;48.336;14.472;2022-09-09T11:18:02;26.60;49.80
63371;DHT22;49504;48.336;14.472;2022-09-09T11:30:20;26.70;49.40
63371;DHT22;49504;48.336;14.472;2022-09-09T11:35:33;26.60;50.00
63371;DHT22;49504;48.336;14.472;2022-09-09T11:40:39;26.60;50.00
63371;DHT22;49504;48.336;14.472;2022-09-09T11:49:26;26.60;49.50
63371;DHT22;49504;48.336;14.472;2022-09-09T11:54:30;26.60;50.00
63371;DHT22;49504;48.336;14.472;2022-09-09T11:59:32;26.70;50.20
63371;DHT22;49504;48.336;14.472;2022-09-09T12:07:51;26.60;49.50
63371;DHT22;49504;48.336;14.472;2022-09-09T12:12:53;26.60;50.30
63371;DHT22;49504;48.336;14.472;2022-09-09T12:17:55;26.70;50.40
63371;DHT22;49504;48.336;14.472;2022-09-09T12:23:19;26.60;50.10
63371;DHT22;49504;48.336;14.472;2022-09-09T12:28:31;26.60;49.80
63371;DHT22;49504;48.336;14.472;2022-09-09T12:33:46;26.60;50.00
63371;DHT22;49504;48.336;14.472;2022-09-09T12:38:48;26.60;50.30
63371;DHT22;49504;48.336;14.472;2022-09-09T12:43:50;26.70;50.50
63371;DHT22;49504;48.336;14.472;2022-09-09T12:48:51;26.70;50.50
63371;DHT22;49504;48.336;14.472;2022-09-09T12:53:55;26.80;50.80
63371;DHT22;49504;48.336;14.472;2022-09-09T12:58:57;27.10;50.40
63371;DHT22;49504;48.336;14.472;2022-09-09T13:03:59;27.30;50.10
63371;DHT22;49504;48.336;14.472;2022-09-09T13:09:02;27.50;49.60
63371;DHT22;49504;48.336;14.472;2022-09-09T13:17:33;27.80;48.70
63371;DHT22;49504;48.336;14.472;2022-09-09T13:22:35;28.00;48.70
63371;DHT22;49504;48.336;14.472;2022-09-09T13:29:51;28.10;48.20
63371;DHT22;49504;48.336;14.472;2022-09-09T13:34:53;28.20;48.20
63371;DHT22;49504;48.336;14.472;2022-09-09T13:46:04;28.20;47.80
63371;DHT22;49504;48.336;14.472;2022-09-09T13:51:26;28.20;47.80
63371;DHT22;49504;48.336;14.472;2022-09-09T13:56:31;28.10;48.00
63371;DHT22;49504;48.336;14.472;2022-09-09T14:01:33;28.00;47.80
63371;DHT22;49504;48.336;14.472;2022-09-09T14:06:35;28.00;47.90
63371;DHT22;49504;48.336;14.472;2022-09-09T14:14:34;27.80;47.70
63371;DHT22;49504;48.336;14.472;2022-09-09T14:19:35;27.80;48.10
63371;DHT22;49504;48.336;14.472;2022-09-09T14:24:36;27.80;48.30
63371;DHT22;49504;48.336;14.472;2022-09-09T14:32:11;27.60;47.90
63371;DHT22;49504;48.336;14.472;2022-09-09T14:41:15;27.50;48.00
63371;DHT22;49504;48.336;14.472;2022-09-09T14:46:19;27.50;48.70
63371;DHT22;49504;48.336;14.472;2022-09-09T14:55:37;27.40;48.30
63371;DHT22;49504;48.336;14.472;2022-09-09T15:00:39;27.40;48.80
63371;DHT22;49504;48.336;14.472;2022-09-09T15:09:25;27.30;48.40
63371;DHT22;49504;48.336;14.472;2022-09-09T15:14:26;27.30;49.00
63371;DHT22;49504;48.336;14.472;2022-09-09T15:23:34;27.20;48.60
63371;DHT22;49504;48.336;14.472;2022-09-09T15:28:36;27.20;49.30
63371;DHT22;49504;48.336;14.472;2022-09-09T15:33:38;27.20;49.40
63371;DHT22;49504;48.336;14.472;2022-09-09T15:38:40;27.20;49.50
63371;DHT22;49504;48.336;14.472;2022-09-09T15:43:43;27.10;49.50
63371;DHT22;49504;48.336;14.472;2022-09-09T15:48:45;27.10;49.50
63371;DHT22;49504;48.336;14.472;2022-09-09T15:53:47;27.10;49.60
63371;DHT22;49504;48.336;14.472;2022-09-09T15:58:49;27.10;49.70
63371;DHT22;49504;48.336;14.472;2022-09-09T16:03:50;27.10;49.80
63371;DHT22;49504;48.336;14.472;2022-09-09T16:08:53;27.10;49.80
63371;DHT22;49504;48.336;14.472;2022-09-09T16:13:55;27.10;50.00
63371;DHT22;49504;48.336;14.472;2022-09-09T16:23:17;27.00;49.20
63371;DHT22;49504;48.336;14.472;2022-09-09T16:30:00;27.00;49.20
63371;DHT22;49504;48.336;14.472;2022-09-09T16:35:01;27.00;50.00
63371;DHT22;49504;48.336;14.472;2022-09-09T16:40:03;27.00;50.20
63371;DHT22;49504;48.336;14.472;2022-09-09T16:45:07;27.00;50.00
63371;DHT22;49504;48.336;14.472;2022-09-09T16:50:09;27.00;50.00
63371;DHT22;49504;48.336;14.472;2022-09-09T16:55:10;27.00;49.90
63371;DHT22;49504;48.336;14.472;2022-09-09T17:00:13;27.00;50.10
63371;DHT22;49504;48.336;14.472;2022-09-09T17:05:14;27.00;50.00
63371;DHT22;49504;48.336;14.472;2022-09-09T17:10:15;27.00;50.10
63371;DHT22;49504;48.336;14.472;2022-09-09T17:15:18;26.90;50.20
63371;DHT22;49504;48.336;14.472;2022-09-09T17:20:19;27.00;50.10
63371;DHT22;49504;48.336;14.472;2022-09-09T17:25:20;27.00;50.10
63371;DHT22;49504;48.336;14.472;2022-09-09T17:30:23;27.00;50.10
63371;DHT22;49504;48.336;14.472;2022-09-09T17:35:24;27.00;50.10
63371;DHT22;49504;48.336;14.472;2022-09-09T17:40:25;26.90;50.00
63371;DHT22;49504;48.336;14.472;2022-09-09T17:45:28;27.00;50.10
63371;DHT22;49504;48.336;14.472;2022-09-09T17:50:29;27.00;50.10
63371;DHT22;49504;48.336;14.472;2022-09-09T17:55:30;27.00;50.20
63371;DHT22;49504;48.336;14.472;2022-09-09T18:00:34;26.90;50.10
63371;DHT22;49504;48.336;14.472;2022-09-09T18:05:35;26.90;50.10
63371;DHT22;49504;48.336;14.472;2022-09-09T18:10:36;26.90;50.10
63371;DHT22;49504;48.336;14.472;2022-09-09T18:16:26;26.90;49.50
63371;DHT22;49504;48.336;14.472;2022-09-09T18:21:29;26.90;50.10
63371;DHT22;49504;48.336;14.472;2022-09-09T18:26:32;26.90;50.20
63371;DHT22;49504;48.336;14.472;2022-09-09T18:31:35;26.90;50.20
63371;DHT22;49504;48.336;14.472;2022-09-09T18:38:18;26.90;49.60
63371;DHT22;49504;48.336;14.472;2022-09-09T18:43:19;26.90;50.60
63371;DHT22;49504;48.336;14.472;2022-09-09T18:48:21;26.90;50.60
63371;DHT22;49504;48.336;14.472;2022-09-09T18:53:23;26.90;50.50
63371;DHT22;49504;48.336;14.472;2022-09-09T18:58:24;26.90;50.50
63371;DHT22;49504;48.336;14.472;2022-09-09T19:03:26;26.90;50.60
63371;DHT22;49504;48.336;14.472;2022-09-09T19:08:32;26.90;50.50
63371;DHT22;49504;48.336;14.472;2022-09-09T19:13:34;26.90;50.60
63371;DHT22;49504;48.336;14.472;2022-09-09T19:26:41;26.80;49.80
63371;DHT22;49504;48.336;14.472;2022-09-09T19:36:17;26.80;49.80
63371;DHT22;49504;48.336;14.472;2022-09-09T19:41:20;26.80;50.40
63371;DHT22;49504;48.336;14.472;2022-09-09T19:46:22;26.80;50.40
63371;DHT22;49504;48.336;14.472;2022-09-09T19:54:47;26.80;49.90
63371;DHT22;49504;48.336;14.472;2022-09-09T19:59:48;26.80;50.50
63371;DHT22;49504;48.336;14.472;2022-09-09T20:04:49;26.80;50.60
63371;DHT22;49504;48.336;14.472;2022-09-09T20:09:51;26.80;50.60
63371;DHT22;49504;48.336;14.472;2022-09-09T20:14:52;26.80;50.60
63371;DHT22;49504;48.336;14.472;2022-09-09T20:19:53;26.80;50.60
63371;DHT22;49504;48.336;14.472;2022-09-09T20:24:56;26.80;50.60
63371;DHT22;49504;48.336;14.472;2022-09-09T20:29:57;26.80;50.70
63371;DHT22;49504;48.336;14.472;2022-09-09T20:34:58;26.80;50.80
63371;DHT22;49504;48.336;14.472;2022-09-09T20:40:00;26.80;50.90
63371;DHT22;49504;48.336;14.472;2022-09-09T20:45:01;26.80;50.90
63371;DHT22;49504;48.336;14.472;2022-09-09T20:50:03;26.80;51.10
63371;DHT22;49504;48.336;14.472;2022-09-09T20:55:06;26.80;50.90
63371;DHT22;49504;48.336;14.472;2022-09-09T21:01:18;26.70;50.30
63371;DHT22;49504;48.336;14.472;2022-09-09T21:06:20;26.80;51.00
63371;DHT22;49504;48.336;14.472;2022-09-09T21:11:21;26.70;50.90
63371;DHT22;49504;48.336;14.472;2022-09-09T21:16:23;26.80;50.90
63371;DHT22;49504;48.336;14.472;2022-09-09T21:26:12;26.70;50.20
63371;DHT22;49504;48.336;14.472;2022-09-09T21:31:44;26.70;50.20
63371;DHT22;49504;48.336;14.472;2022-09-09T21:38:04;26.70;50.30
63371;DHT22;49504;48.336;14.472;2022-09-09T21:43:05;26.70;50.90
63371;DHT22;49504;48.336;14.472;2022-09-09T21:48:55;26.70;50.30
63371;DHT22;49504;48.336;14.472;2022-09-09T21:53:57;26.70;50.90
63371;DHT22;49504;48.336;14.472;2022-09-09T21:58:58;26.70;50.90
63371;DHT22;49504;48.336;14.472;2022-09-09T22:04:01;26.70;51.00
63371;DHT22;49504;48.336;14.472;2022-09-09T22:09:02;26.70;50.90
63371;DHT22;49504;48.336;14.472;2022-09-09T22:14:03;26.70;51.60
63371;DHT22;49504;48.336;14.472;2022-09-09T22:19:06;26.70;50.90
63371;DHT22;49504;48.336;14.472;2022-09-09T22:24:07;26.70;50.90
63371;DHT22;49504;48.336;14.472;2022-09-09T22:29:08;26.60;50.80
63371;DHT22;49504;48.336;14.472;2022-09-09T22:34:10;26.70;50.90
63371;DHT22;49504;48.336;14.472;2022-09-09T22:39:11;26.70;50.90
63371;DHT22;49504;48.336;14.472;2022-09-09T22:44:12;26.70;50.90
63371;DHT22;49504;48.336;14.472;2022-09-09T22:49:14;26.70;50.90
63371;DHT22;49504;48.336;14.472;2022-09-09T22:55:15;26.60;50.20
63371;DHT22;49504;48.336;14.472;2022-09-09T23:00:16;26.70;50.90
63371;DHT22;49504;48.336;14.472;2022-09-09T23:05:17;26.60;50.80
63371;DHT22;49504;48.336;14.472;2022-09-09T23:15:03;26.60;50.30
63371;DHT22;49504;48.336;14.472;2022-09-09T23:20:07;26.70;50.90
63371;DHT22;49504;48.336;14.472;2022-09-09T23:25:08;26.70;50.90
63371;DHT22;49504;48.336;14.472;2022-09-09T23:31:36;26.60;50.40
63371;DHT22;49504;48.336;14.472;2022-09-09T23:36:37;26.70;50.90
63371;DHT22;49504;48.336;14.472;2022-09-09T23:41:38;26.60;50.90
63371;DHT22;49504;48.336;14.472;2022-09-09T23:46:41;26.60;51.00
63371;DHT22;49504;48.336;14.472;2022-09-09T23:51:42;26.60;50.90
63371;DHT22;49504;48.336;14.472;2022-09-09T23:56:43;26.70;51.00
